Time;durP1;ratioP1;P1;durP2;ratioP2;P2;SDS_P1;SDS_P2;PMS_P1;PMS_P2;Temp;Humidity;BMP_temperature;BMP_pressure;BME280_temperature;BME280_humidity;BME280_pressure;Samples;Min_cycle;Max_cycle;Signal;HPM_P1;HPM_P2
2021/11/24 00:00:27;;;;;;;6.47;5.35;;;8.20;99.90;;;;;;4894186;29;20035;-77
2021/11/24 00:02:52;;;;;;;6.30;5.32;;;8.10;99.90;;;;;;4898911;29;20120;-89
2021/11/24 00:05:19;;;;;;;5.90;5.00;;;8.00;99.90;;;;;;4881960;29;20029;-84
2021/11/24 00:07:45;;;;;;;6.95;5.38;;;8.00;99.90;;;;;;4880376;29;20033;-84
2021/11/24 00:10:13;;;;;;;8.02;6.03;;;8.00;99.90;;;;;;4880421;29;20067;-85
2021/11/24 00:12:39;;;;;;;7.05;5.40;;;7.90;99.90;;;;;;4879599;29;20068;-75
2021/11/24 00:15:06;;;;;;;6.97;6.30;;;7.90;99.90;;;;;;4880725;29;20065;-85
2021/11/24 00:17:32;;;;;;;7.38;6.05;;;7.90;99.90;;;;;;4880671;29;20032;-74
2021/11/24 00:19:58;;;;;;;7.40;5.75;;;7.90;99.90;;;;;;4879790;29;20119;-75
2021/11/24 00:22:24;;;;;;;6.78;6.15;;;7.90;99.90;;;;;;4880029;29;20154;-75
2021/11/24 00:24:49;;;;;;;6.88;5.82;;;7.80;99.90;;;;;;4879665;29;20048;-75
2021/11/24 00:27:15;;;;;;;6.30;5.65;;;7.80;99.90;;;;;;4881094;29;20029;-74
2021/11/24 00:29:41;;;;;;;6.10;5.50;;;7.80;99.90;;;;;;4880150;29;20052;-75
2021/11/24 00:32:06;;;;;;;6.80;5.38;;;7.80;99.90;;;;;;4880914;29;20029;-76
2021/11/24 00:34:33;;;;;;;5.60;4.82;;;7.80;99.90;;;;;;4879627;29;20499;-75
2021/11/24 00:36:58;;;;;;;5.40;4.50;;;7.80;99.90;;;;;;4880076;29;20033;-80
2021/11/24 00:39:24;;;;;;;5.07;4.55;;;7.80;99.90;;;;;;4879633;29;20074;-75
2021/11/24 00:41:49;;;;;;;6.05;4.57;;;7.80;99.90;;;;;;4879907;29;20043;-75
2021/11/24 00:44:15;;;;;;;4.88;4.40;;;7.80;99.90;;;;;;4880120;29;20025;-82
2021/11/24 00:46:41;;;;;;;5.50;4.57;;;7.80;99.90;;;;;;4880375;29;20025;-76
2021/11/24 00:49:08;;;;;;;4.57;4.18;;;7.80;99.90;;;;;;4880040;29;20077;-75
2021/11/24 00:51:34;;;;;;;5.28;4.13;;;7.80;99.90;;;;;;4879474;29;20037;-80
2021/11/24 00:53:59;;;;;;;5.57;4.70;;;7.80;99.90;;;;;;4879422;29;20057;-84
2021/11/24 00:56:25;;;;;;;4.70;4.30;;;7.80;99.90;;;;;;4880776;29;20029;-74
2021/11/24 00:58:50;;;;;;;6.18;4.03;;;7.80;99.90;;;;;;4879034;29;20057;-80
2021/11/24 01:01:16;;;;;;;4.22;3.83;;;7.70;99.90;;;;;;4879721;29;20057;-78
2021/11/24 01:03:41;;;;;;;4.80;3.92;;;7.80;99.90;;;;;;4880640;29;20100;-75
2021/11/24 01:06:07;;;;;;;4.78;3.53;;;7.80;99.90;;;;;;4879063;29;20033;-75
2021/11/24 01:08:33;;;;;;;3.90;3.50;;;7.80;99.90;;;;;;4879237;29;20604;-76
2021/11/24 01:10:58;;;;;;;3.70;3.33;;;7.80;99.90;;;;;;4879848;29;20033;-76
2021/11/24 01:13:24;;;;;;;3.65;3.33;;;7.80;99.90;;;;;;4878876;29;20120;-75
2021/11/24 01:15:50;;;;;;;4.35;3.67;;;7.90;99.90;;;;;;4881011;29;20057;-75
2021/11/24 01:18:17;;;;;;;5.25;3.83;;;7.90;99.90;;;;;;4879676;29;20032;-74
2021/11/24 01:20:46;;;;;;;4.53;3.65;;;7.90;99.90;;;;;;4879752;29;20402;-74
2021/11/24 01:23:11;;;;;;;4.97;4.20;;;7.90;99.90;;;;;;4881043;29;20077;-75
2021/11/24 01:25:37;;;;;;;4.55;4.15;;;7.80;99.90;;;;;;4879247;29;20497;-88
2021/11/24 01:28:06;;;;;;;4.13;3.83;;;7.80;99.90;;;;;;4880192;29;20029;-74
2021/11/24 01:30:32;;;;;;;3.75;3.45;;;7.70;99.90;;;;;;4878223;29;20029;-76
2021/11/24 01:32:58;;;;;;;4.40;4.00;;;7.70;99.90;;;;;;4880423;29;20100;-77
2021/11/24 01:35:24;;;;;;;5.45;3.55;;;7.70;99.90;;;;;;4878620;29;20463;-75
2021/11/24 01:37:50;;;;;;;4.18;3.78;;;7.70;99.90;;;;;;4879306;29;20033;-75
2021/11/24 01:40:16;;;;;;;4.35;3.95;;;7.70;99.90;;;;;;4879067;29;20100;-87
2021/11/24 01:42:42;;;;;;;4.15;3.85;;;7.70;99.90;;;;;;4878251;29;20064;-75
2021/11/24 01:45:10;;;;;;;3.85;3.55;;;7.70;99.90;;;;;;4880564;29;20045;-86
2021/11/24 01:47:36;;;;;;;4.10;3.70;;;7.70;99.90;;;;;;4878710;29;20045;-75
2021/11/24 01:50:02;;;;;;;4.35;3.20;;;7.70;99.90;;;;;;4879660;29;20110;-78
2021/11/24 01:52:30;;;;;;;3.88;3.58;;;7.70;99.90;;;;;;4879665;29;20061;-77
2021/11/24 01:54:55;;;;;;;4.32;3.15;;;7.70;99.90;;;;;;4878809;29;20029;-76
2021/11/24 01:57:24;;;;;;;3.88;3.47;;;7.70;99.90;;;;;;4878121;29;20492;-77
2021/11/24 01:59:49;;;;;;;4.05;3.63;;;7.80;99.90;;;;;;4878581;29;20466;-75
2021/11/24 02:02:17;;;;;;;3.53;3.22;;;7.80;99.90;;;;;;4863296;29;20060;-75
2021/11/24 02:04:42;;;;;;;3.20;3.00;;;7.80;99.90;;;;;;4844494;29;20030;-75
2021/11/24 02:07:08;;;;;;;3.42;3.13;;;7.80;99.90;;;;;;4844200;29;20033;-75
2021/11/24 02:09:33;;;;;;;3.00;2.78;;;7.80;99.90;;;;;;4843591;29;20101;-74
2021/11/24 02:11:59;;;;;;;3.38;3.08;;;7.80;99.90;;;;;;4844547;29;20558;-75
2021/11/24 02:14:26;;;;;;;3.13;2.88;;;7.80;99.90;;;;;;4844362;29;20029;-75
2021/11/24 02:16:53;;;;;;;3.53;3.22;;;7.80;99.90;;;;;;4844033;29;20018;-76
2021/11/24 02:19:20;;;;;;;3.22;3.03;;;7.80;99.90;;;;;;4844601;29;20150;-75
2021/11/24 02:21:51;;;;;;;3.47;3.17;;;7.70;99.90;;;;;;4844383;29;20037;-75
2021/11/24 02:24:29;;;;;;;2.87;2.67;;;7.70;99.90;;;;;;4860924;29;20109;-76
2021/11/24 02:26:55;;;;;;;3.38;3.08;;;7.60;99.90;;;;;;4844638;29;20030;-75
2021/11/24 02:29:21;;;;;;;4.03;3.63;;;7.60;99.90;;;;;;4844278;29;20363;-75
2021/11/24 02:31:48;;;;;;;3.58;3.28;;;7.50;99.90;;;;;;4843364;29;20033;-86
2021/11/24 02:34:14;;;;;;;4.15;3.40;;;7.40;99.90;;;;;;4844530;29;20478;-75
2021/11/24 02:36:40;;;;;;;3.97;3.67;;;7.40;99.90;;;;;;4844156;29;20438;-87
2021/11/24 02:39:06;;;;;;;3.50;3.20;;;7.40;99.90;;;;;;4843958;29;20090;-76
2021/11/24 02:41:32;;;;;;;3.60;3.30;;;7.30;99.90;;;;;;4860172;29;20037;-75
2021/11/24 02:44:19;;;;;;;3.67;3.38;;;7.30;99.90;;;;;;4844708;29;20034;-77
2021/11/24 02:46:45;;;;;;;3.60;3.30;;;7.30;99.90;;;;;;4844332;29;20079;-85
2021/11/24 02:49:11;;;;;;;3.17;2.97;;;7.30;99.90;;;;;;4860991;29;20455;-75
2021/11/24 02:51:37;;;;;;;3.60;3.30;;;7.20;99.90;;;;;;4859596;29;20049;-89
2021/11/24 02:54:03;;;;;;;3.03;2.80;;;7.20;99.90;;;;;;4860677;29;20467;-89
2021/11/24 02:56:29;;;;;;;3.88;3.50;;;7.10;99.90;;;;;;4844117;29;20390;-88
2021/11/24 02:58:54;;;;;;;3.42;2.88;;;7.10;99.90;;;;;;4860172;29;20021;-75
2021/11/24 03:01:20;;;;;;;3.20;3.00;;;7.10;99.90;;;;;;4858914;29;20049;-75
2021/11/24 03:03:46;;;;;;;3.47;3.08;;;7.00;99.90;;;;;;4877951;29;20443;-81
2021/11/24 03:06:11;;;;;;;2.90;2.70;;;6.90;99.90;;;;;;4878530;29;20363;-75
2021/11/24 03:08:37;;;;;;;3.35;3.05;;;6.90;99.90;;;;;;4878841;29;20108;-75
2021/11/24 03:11:02;;;;;;;3.28;3.03;;;6.90;99.90;;;;;;4877912;29;20036;-74
2021/11/24 03:13:28;;;;;;;3.00;2.80;;;6.80;99.90;;;;;;4878306;29;20028;-74
2021/11/24 03:15:54;;;;;;;5.35;3.45;;;6.80;99.90;;;;;;4878098;29;20382;-85
2021/11/24 03:18:19;;;;;;;3.10;2.80;;;6.70;99.90;;;;;;4877965;29;20470;-88
2021/11/24 03:20:45;;;;;;;3.70;3.40;;;6.70;99.90;;;;;;4877063;29;20478;-83
2021/11/24 03:23:10;;;;;;;3.50;3.20;;;6.60;99.90;;;;;;4878021;29;20040;-73
2021/11/24 03:25:36;;;;;;;5.75;3.67;;;6.60;99.90;;;;;;4877440;29;20029;-86
2021/11/24 03:28:03;;;;;;;3.85;3.03;;;6.60;99.90;;;;;;4878196;29;20029;-79
2021/11/24 03:30:29;;;;;;;3.22;2.92;;;6.50;99.90;;;;;;4877399;29;20029;-74
2021/11/24 03:32:56;;;;;;;2.80;2.60;;;6.60;99.90;;;;;;4878031;29;20029;-76
2021/11/24 03:35:23;;;;;;;3.10;2.90;;;6.50;99.90;;;;;;4878430;29;20116;-74
2021/11/24 03:37:51;;;;;;;3.10;2.88;;;6.60;99.90;;;;;;4877645;29;20033;-74
2021/11/24 03:40:19;;;;;;;2.80;2.60;;;6.60;99.90;;;;;;4877464;29;20540;-76
2021/11/24 03:42:46;;;;;;;2.70;2.50;;;6.60;99.90;;;;;;4876600;29;20064;-74
2021/11/24 03:45:17;;;;;;;2.75;2.55;;;6.60;99.90;;;;;;4877907;29;20085;-74
2021/11/24 03:47:43;;;;;;;3.03;2.38;;;6.70;99.90;;;;;;4882797;29;20035;-77
2021/11/24 03:50:09;;;;;;;2.75;2.55;;;6.70;99.90;;;;;;4894891;29;20032;-77
2021/11/24 03:52:35;;;;;;;2.65;2.45;;;6.70;99.90;;;;;;4913939;29;20023;-75
2021/11/24 03:55:06;;;;;;;2.63;2.42;;;6.80;99.90;;;;;;4899457;29;20058;-75
2021/11/24 03:57:32;;;;;;;2.95;2.75;;;6.70;99.90;;;;;;4900678;29;20028;-74
2021/11/24 03:59:57;;;;;;;2.53;2.33;;;6.80;99.90;;;;;;4900949;29;20040;-80
2021/11/24 04:02:23;;;;;;;2.67;2.47;;;6.80;99.90;;;;;;4898285;29;20098;-76
2021/11/24 04:04:49;;;;;;;2.97;2.78;;;6.80;99.90;;;;;;4899291;29;20027;-78
2021/11/24 04:07:14;;;;;;;3.17;2.90;;;6.70;99.90;;;;;;4881234;29;20037;-75
2021/11/24 04:09:40;;;;;;;2.70;2.50;;;6.70;99.90;;;;;;4879616;29;20028;-75
2021/11/24 04:12:06;;;;;;;3.33;2.47;;;6.80;99.90;;;;;;4880556;29;20107;-77
2021/11/24 04:14:32;;;;;;;3.00;2.70;;;6.80;99.90;;;;;;4890498;29;20108;-75
2021/11/24 04:16:57;;;;;;;2.80;2.60;;;6.70;99.90;;;;;;4898517;29;20434;-76
2021/11/24 04:19:23;;;;;;;2.50;2.30;;;6.70;99.90;;;;;;4898875;29;20029;-74
2021/11/24 04:21:49;;;;;;;2.63;2.42;;;6.70;99.90;;;;;;4886292;29;20033;-75
2021/11/24 04:24:14;;;;;;;2.83;2.63;;;6.70;99.90;;;;;;4891734;29;20031;-74
2021/11/24 04:26:40;;;;;;;3.35;3.05;;;6.60;99.90;;;;;;4893720;29;20066;-84
2021/11/24 04:29:05;;;;;;;2.90;2.70;;;6.70;99.90;;;;;;4880477;29;20021;-78
2021/11/24 04:31:31;;;;;;;2.78;2.58;;;6.70;99.90;;;;;;4879531;29;20036;-76
2021/11/24 04:33:56;;;;;;;2.65;2.42;;;6.70;99.90;;;;;;4880337;29;20021;-85
2021/11/24 04:36:22;;;;;;;2.85;2.55;;;6.70;99.90;;;;;;4880217;29;20089;-79
2021/11/24 04:38:48;;;;;;;2.97;2.63;;;6.70;99.90;;;;;;4878970;29;20029;-76
2021/11/24 04:41:13;;;;;;;2.65;2.45;;;6.70;99.90;;;;;;4879557;29;20387;-74
2021/11/24 04:43:43;;;;;;;2.63;2.42;;;6.70;99.90;;;;;;4898283;29;20028;-74
2021/11/24 04:46:09;;;;;;;3.90;2.70;;;6.60;99.90;;;;;;4887837;29;20024;-74
2021/11/24 04:48:36;;;;;;;2.83;2.63;;;6.60;99.90;;;;;;4891035;29;20061;-74
2021/11/24 04:51:02;;;;;;;2.83;2.63;;;6.60;99.90;;;;;;4887782;29;20029;-73
2021/11/24 04:53:28;;;;;;;2.63;2.42;;;6.60;99.90;;;;;;4880728;29;20028;-77
2021/11/24 04:55:54;;;;;;;3.15;2.85;;;6.60;99.90;;;;;;4897460;29;20119;-75
2021/11/24 04:58:19;;;;;;;2.40;2.30;;;6.60;99.90;;;;;;4898943;29;20529;-74
2021/11/24 05:00:45;;;;;;;2.70;2.50;;;6.70;99.90;;;;;;4899356;29;20053;-87
2021/11/24 05:03:11;;;;;;;2.30;2.10;;;6.70;99.90;;;;;;4899430;29;20029;-74
2021/11/24 05:05:36;;;;;;;3.63;3.05;;;6.80;99.90;;;;;;4898566;29;20029;-75
2021/11/24 05:08:02;;;;;;;2.63;2.42;;;6.80;99.90;;;;;;4899934;29;20037;-75
2021/11/24 05:10:28;;;;;;;5.60;2.70;;;6.80;99.90;;;;;;4897760;29;20123;-75
2021/11/24 05:12:54;;;;;;;2.80;2.60;;;6.90;99.90;;;;;;4898807;29;20084;-77
2021/11/24 05:15:26;;;;;;;2.53;2.33;;;6.90;99.90;;;;;;4899737;29;20028;-74
2021/11/24 05:17:57;;;;;;;2.28;2.10;;;6.90;99.90;;;;;;4898128;29;20530;-78
2021/11/24 05:20:25;;;;;;;2.27;2.07;;;7.00;99.90;;;;;;4897590;29;20055;-85
2021/11/24 05:22:52;;;;;;;2.30;2.20;;;7.00;99.90;;;;;;4899048;29;20037;-73
2021/11/24 05:25:18;;;;;;;3.25;2.05;;;7.00;99.90;;;;;;4897818;29;20029;-73
2021/11/24 05:27:44;;;;;;;2.53;2.33;;;7.10;99.90;;;;;;4898408;29;20045;-73
2021/11/24 05:30:10;;;;;;;2.72;2.53;;;7.10;99.90;;;;;;4898054;29;20052;-73
2021/11/24 05:32:36;;;;;;;3.30;3.00;;;7.10;99.90;;;;;;4897402;29;20088;-73
2021/11/24 05:35:03;;;;;;;4.65;4.25;;;7.10;99.90;;;;;;4898525;29;20032;-75
2021/11/24 05:37:28;;;;;;;4.32;3.92;;;7.10;99.90;;;;;;4897251;29;20032;-73
2021/11/24 05:39:54;;;;;;;4.80;4.22;;;7.10;99.90;;;;;;4897596;29;20028;-73
2021/11/24 05:42:19;;;;;;;5.28;4.35;;;7.10;99.90;;;;;;4897833;29;20095;-73
2021/11/24 05:44:48;;;;;;;4.80;4.35;;;7.20;99.90;;;;;;4898746;29;20399;-73
2021/11/24 05:47:50;;;;;;;4.63;4.20;;;7.20;99.90;;;;;;4897972;29;20036;-78
2021/11/24 05:49:59;;;;;;;5.40;4.90;;;7.20;99.90;;;;;;4898551;29;20032;-85
2021/11/24 05:52:25;;;;;;;6.05;5.05;;;7.20;99.90;;;;;;4897985;29;20065;-74
2021/11/24 05:54:51;;;;;;;5.45;4.82;;;7.20;99.90;;;;;;4897935;29;20025;-83
2021/11/24 05:57:16;;;;;;;5.00;4.50;;;7.20;99.90;;;;;;4897520;29;20029;-79
2021/11/24 05:59:42;;;;;;;5.07;4.38;;;7.20;99.90;;;;;;4898407;29;20517;-78
2021/11/24 06:02:08;;;;;;;5.03;4.40;;;7.30;99.90;;;;;;4896765;29;20058;-75
2021/11/24 06:04:34;;;;;;;4.85;4.40;;;7.30;99.90;;;;;;4896720;29;20038;-81
2021/11/24 06:06:59;;;;;;;5.10;4.50;;;7.30;99.90;;;;;;4897150;29;20028;-83
2021/11/24 06:09:25;;;;;;;4.82;4.32;;;7.30;99.90;;;;;;4897527;29;20131;-74
2021/11/24 06:11:50;;;;;;;4.68;4.18;;;7.40;99.90;;;;;;4898613;29;20541;-74
2021/11/24 06:14:16;;;;;;;3.83;3.53;;;7.40;99.90;;;;;;4897029;29;20024;-75
2021/11/24 06:16:41;;;;;;;4.30;3.90;;;7.40;99.90;;;;;;4895501;29;20504;-75
2021/11/24 06:19:07;;;;;;;5.57;4.22;;;7.40;99.90;;;;;;4897125;29;20025;-75
2021/11/24 06:21:32;;;;;;;4.75;4.03;;;7.50;99.90;;;;;;4897573;29;20128;-74
2021/11/24 06:23:58;;;;;;;4.30;3.78;;;7.50;99.90;;;;;;4896582;29;20021;-75
2021/11/24 06:26:24;;;;;;;4.15;3.55;;;7.40;99.90;;;;;;4896804;29;20035;-74
2021/11/24 06:28:50;;;;;;;4.20;3.75;;;7.50;99.90;;;;;;4897058;29;20025;-75
2021/11/24 06:31:16;;;;;;;4.90;3.80;;;7.40;99.90;;;;;;4897471;29;20159;-74
2021/11/24 06:33:42;;;;;;;4.70;4.07;;;7.40;99.90;;;;;;4897995;29;20027;-84
2021/11/24 06:36:08;;;;;;;5.30;4.05;;;7.40;99.90;;;;;;4897076;29;20028;-75
2021/11/24 06:38:34;;;;;;;4.85;4.15;;;7.40;99.90;;;;;;4896115;29;20440;-75
2021/11/24 06:40:59;;;;;;;4.95;4.00;;;7.40;99.90;;;;;;4896592;29;20120;-84
2021/11/24 06:43:25;;;;;;;5.03;4.53;;;7.40;99.90;;;;;;4895805;29;20366;-73
2021/11/24 06:45:50;;;;;;;6.43;5.05;;;7.40;99.90;;;;;;4898241;29;20060;-73
2021/11/24 06:48:16;;;;;;;5.03;4.53;;;7.40;99.90;;;;;;4897204;29;20029;-83
2021/11/24 06:50:42;;;;;;;4.72;4.15;;;7.50;99.90;;;;;;4894947;29;20029;-74
2021/11/24 06:53:08;;;;;;;4.78;4.07;;;7.50;99.90;;;;;;4886903;29;20060;-73
2021/11/24 06:55:34;;;;;;;5.35;4.57;;;7.50;99.90;;;;;;4877954;29;20060;-74
2021/11/24 06:58:00;;;;;;;6.22;4.07;;;7.50;99.90;;;;;;4891066;29;20450;-74
2021/11/24 07:00:26;;;;;;;5.93;4.32;;;7.50;99.90;;;;;;4889739;29;20486;-73
2021/11/24 07:02:52;;;;;;;3.63;3.33;;;7.50;99.90;;;;;;4892125;29;20092;-74
2021/11/24 07:05:18;;;;;;;5.35;4.25;;;7.50;99.90;;;;;;4893023;29;20123;-76
2021/11/24 07:07:44;;;;;;;3.80;3.40;;;7.50;99.90;;;;;;4897571;29;20108;-75
2021/11/24 07:10:10;;;;;;;3.97;3.58;;;7.50;99.90;;;;;;4898066;29;20032;-78
2021/11/24 07:12:35;;;;;;;4.20;3.80;;;7.50;99.90;;;;;;4895441;29;20028;-78
2021/11/24 07:15:01;;;;;;;3.78;3.38;;;7.40;99.90;;;;;;4897242;29;20138;-87
2021/11/24 07:17:27;;;;;;;4.57;3.78;;;7.40;99.90;;;;;;4896521;29;20025;-90
2021/11/24 07:19:55;;;;;;;3.97;3.58;;;7.40;99.90;;;;;;4887229;29;20024;-77
2021/11/24 07:22:20;;;;;;;4.15;3.75;;;7.30;99.90;;;;;;4894471;29;20486;-77
2021/11/24 07:24:46;;;;;;;4.90;4.40;;;7.30;99.90;;;;;;4897295;29;20084;-76
2021/11/24 07:27:12;;;;;;;6.43;5.55;;;7.30;99.90;;;;;;4895359;29;20081;-89
2021/11/24 07:29:37;;;;;;;11.15;8.55;;;7.20;99.90;;;;;;4897670;29;20037;-81
2021/11/24 07:32:03;;;;;;;10.20;8.07;;;7.20;99.90;;;;;;4899396;29;20033;-77
2021/11/24 07:34:30;;;;;;;8.57;7.20;;;7.20;99.90;;;;;;4900119;29;20375;-73
2021/11/24 07:36:56;;;;;;;7.68;6.80;;;7.10;99.90;;;;;;4901281;29;20474;-83
2021/11/24 07:39:21;;;;;;;8.10;7.10;;;7.20;99.90;;;;;;4898156;29;20033;-75
2021/11/24 07:41:47;;;;;;;8.73;6.30;;;7.10;99.90;;;;;;4885334;29;20067;-78
2021/11/24 07:44:13;;;;;;;7.03;6.32;;;7.10;99.90;;;;;;4882041;29;20033;-76
2021/11/24 07:46:38;;;;;;;6.28;5.68;;;7.10;99.90;;;;;;4880311;29;20033;-75
2021/11/24 07:49:04;;;;;;;6.10;5.43;;;7.10;99.90;;;;;;4892965;29;20059;-83
2021/11/24 07:51:30;;;;;;;9.35;5.30;;;7.00;99.90;;;;;;4898227;29;20031;-76
2021/11/24 07:53:55;;;;;;;6.13;5.35;;;7.00;99.90;;;;;;4898605;29;20025;-77
2021/11/24 07:56:22;;;;;;;5.30;4.80;;;7.00;99.90;;;;;;4898359;29;20479;-86
2021/11/24 07:58:48;;;;;;;5.38;4.57;;;7.00;99.90;;;;;;4897329;29;20033;-74
2021/11/24 08:01:14;;;;;;;5.15;4.60;;;7.00;99.90;;;;;;4899453;29;20052;-73
2021/11/24 08:03:40;;;;;;;5.72;4.78;;;7.00;99.90;;;;;;4895975;29;20430;-73
2021/11/24 08:06:06;;;;;;;5.13;4.45;;;7.10;99.90;;;;;;4900572;29;20072;-74
2021/11/24 08:08:32;;;;;;;4.63;4.13;;;7.10;99.90;;;;;;4897199;29;20029;-73
2021/11/24 08:10:58;;;;;;;5.30;4.50;;;7.20;99.90;;;;;;4889584;29;20519;-74
2021/11/24 08:13:25;;;;;;;4.63;4.03;;;7.20;99.90;;;;;;4899343;29;20033;-79
2021/11/24 08:15:50;;;;;;;4.75;4.18;;;7.30;99.90;;;;;;4883173;29;20021;-74
2021/11/24 08:18:16;;;;;;;5.93;4.57;;;7.30;99.90;;;;;;4889754;29;20092;-77
2021/11/24 08:20:42;;;;;;;5.40;4.78;;;7.40;99.90;;;;;;4894618;29;20450;-74
2021/11/24 08:23:08;;;;;;;5.57;4.47;;;7.40;99.90;;;;;;4897858;29;20115;-78
2021/11/24 08:25:34;;;;;;;5.85;4.20;;;7.50;99.90;;;;;;4899049;29;20028;-70
2021/11/24 08:28:00;;;;;;;4.88;4.38;;;7.60;99.90;;;;;;4898989;29;20035;-71
2021/11/24 08:30:26;;;;;;;6.10;5.00;;;7.60;99.90;;;;;;4895737;29;20024;-72
2021/11/24 08:32:53;;;;;;;7.57;4.93;;;7.70;99.90;;;;;;4898430;29;20032;-69
2021/11/24 08:35:20;;;;;;;5.90;5.22;;;7.70;99.90;;;;;;4899160;29;20505;-75
2021/11/24 08:37:46;;;;;;;5.00;4.50;;;7.80;99.90;;;;;;4897892;29;20387;-77
2021/11/24 08:40:12;;;;;;;5.32;4.65;;;7.80;99.90;;;;;;4898751;29;20036;-75
2021/11/24 08:42:39;;;;;;;6.72;5.55;;;7.80;99.90;;;;;;4898299;29;20044;-75
2021/11/24 08:45:07;;;;;;;7.28;5.85;;;7.90;99.90;;;;;;4897352;29;20029;-72
2021/11/24 08:47:33;;;;;;;6.38;5.50;;;8.00;99.90;;;;;;4899779;29;20052;-75
2021/11/24 08:49:59;;;;;;;7.50;6.03;;;8.10;99.90;;;;;;4898398;29;20508;-82
2021/11/24 08:52:25;;;;;;;7.65;6.53;;;8.10;99.90;;;;;;4897621;29;20021;-71
2021/11/24 08:54:50;;;;;;;7.55;6.38;;;8.10;99.90;;;;;;4899721;29;20417;-83
2021/11/24 08:57:16;;;;;;;7.95;6.40;;;8.20;99.90;;;;;;4899072;29;20032;-79
2021/11/24 08:59:42;;;;;;;6.90;6.10;;;8.30;99.90;;;;;;4899376;29;20020;-82
2021/11/24 09:02:09;;;;;;;8.23;6.80;;;8.40;99.90;;;;;;4899271;29;20055;-76
2021/11/24 09:04:35;;;;;;;6.70;6.00;;;8.50;99.90;;;;;;4898771;29;20060;-83
2021/11/24 09:07:01;;;;;;;8.15;7.05;;;8.50;99.90;;;;;;4899647;29;20063;-82
2021/11/24 09:09:27;;;;;;;8.93;7.65;;;8.60;99.90;;;;;;4899118;29;20454;-83
2021/11/24 09:11:52;;;;;;;9.32;6.95;;;8.60;99.90;;;;;;4898925;29;20052;-84
2021/11/24 09:14:19;;;;;;;7.45;6.40;;;8.60;99.90;;;;;;4899547;29;20032;-85
2021/11/24 09:16:45;;;;;;;7.80;6.95;;;8.70;99.90;;;;;;4899204;29;20052;-79
2021/11/24 09:19:10;;;;;;;7.00;6.15;;;8.80;99.90;;;;;;4898820;29;20120;-85
2021/11/24 09:21:36;;;;;;;7.93;7.07;;;8.80;99.90;;;;;;4898809;29;20487;-85
2021/11/24 09:24:11;;;;;;;7.85;6.47;;;8.90;99.90;;;;;;4899393;29;20059;-72
2021/11/24 09:26:42;;;;;;;6.95;6.05;;;8.90;99.90;;;;;;4898368;29;20035;-83
2021/11/24 09:29:09;;;;;;;6.82;6.13;;;9.00;99.90;;;;;;4899136;29;20642;-83
2021/11/24 09:31:35;;;;;;;6.47;5.70;;;9.00;99.90;;;;;;4898702;29;20028;-82
2021/11/24 09:34:01;;;;;;;6.63;5.90;;;9.00;99.90;;;;;;4898717;29;20032;-84
2021/11/24 09:36:27;;;;;;;6.22;5.55;;;9.00;99.90;;;;;;4898512;29;20029;-84
2021/11/24 09:38:53;;;;;;;6.90;6.20;;;9.00;99.90;;;;;;4897681;29;20100;-84
2021/11/24 09:41:24;;;;;;;6.45;5.85;;;9.10;99.90;;;;;;4898115;29;20038;-83
2021/11/24 09:43:52;;;;;;;7.40;6.47;;;9.10;99.90;;;;;;4899108;29;20032;-73
2021/11/24 09:46:19;;;;;;;6.55;5.78;;;9.10;99.90;;;;;;4898314;29;20037;-77
2021/11/24 09:48:48;;;;;;;6.95;6.15;;;9.10;99.90;;;;;;4898642;29;20100;-85
2021/11/24 09:51:14;;;;;;;6.97;6.15;;;9.20;99.90;;;;;;4897851;29;20028;-76
2021/11/24 09:53:42;;;;;;;7.20;5.70;;;9.20;99.90;;;;;;4896517;29;20036;-85
2021/11/24 09:56:08;;;;;;;7.60;6.53;;;9.10;99.90;;;;;;4897485;29;20400;-75
2021/11/24 09:58:34;;;;;;;7.10;6.50;;;9.20;99.90;;;;;;4896977;29;20020;-83
2021/11/24 10:00:59;;;;;;;7.75;6.65;;;9.20;99.90;;;;;;4896585;29;20548;-77
2021/11/24 10:03:26;;;;;;;8.70;7.80;;;9.20;99.90;;;;;;4898258;29;20136;-81
2021/11/24 10:05:52;;;;;;;10.32;8.90;;;9.20;99.90;;;;;;4897299;29;20028;-72
2021/11/24 10:08:18;;;;;;;10.38;8.90;;;9.20;99.90;;;;;;4896512;29;20028;-78
2021/11/24 10:10:44;;;;;;;11.98;10.00;;;9.20;99.90;;;;;;4897092;29;20047;-83
2021/11/24 10:13:10;;;;;;;13.32;10.82;;;9.30;99.90;;;;;;4898358;29;20025;-83
2021/11/24 10:15:41;;;;;;;12.38;10.80;;;9.30;99.90;;;;;;4897535;29;20024;-78
2021/11/24 10:18:23;;;;;;;14.90;11.48;;;9.30;99.90;;;;;;4898389;29;20367;-84
2021/11/24 10:20:54;;;;;;;;;;;9.40;99.90;;;;;;4898386;29;20089;-85
2021/11/24 10:23:31;;;;;;;12.38;10.30;;;9.40;99.90;;;;;;4897863;29;19907;-83
2021/11/24 10:26:18;;;;;;;10.38;9.27;;;9.40;99.90;;;;;;4897293;29;20080;-82
2021/11/24 10:29:05;;;;;;;9.23;8.23;;;9.50;99.90;;;;;;4896134;29;20081;-78
2021/11/24 10:31:44;;;;;;;7.95;6.03;;;9.60;99.90;;;;;;4896635;29;20033;-84
2021/11/24 10:34:24;;;;;;;4.03;3.47;;;9.60;99.90;;;;;;4898303;29;20035;-84
2021/11/24 10:36:54;;;;;;;2.67;2.17;;;9.60;99.90;;;;;;4897417;29;20060;-78
2021/11/24 10:39:21;;;;;;;2.42;1.77;;;9.60;99.90;;;;;;4896643;29;20039;-84
2021/11/24 10:41:49;;;;;;;2.28;2.08;;;9.60;99.90;;;;;;4897381;29;20040;-80
2021/11/24 10:44:27;;;;;;;2.67;2.35;;;9.60;99.90;;;;;;4897456;29;20056;-81
2021/11/24 10:46:54;;;;;;;4.22;3.20;;;9.50;99.90;;;;;;4898158;29;20028;-81
2021/11/24 10:49:42;;;;;;;3.63;3.10;;;9.50;99.90;;;;;;4897940;29;20021;-82
2021/11/24 10:52:16;;;;;;;4.07;2.90;;;9.50;99.90;;;;;;4897763;29;20185;-78
2021/11/24 10:54:43;;;;;;;3.00;2.63;;;9.40;99.90;;;;;;4896469;29;20044;-80
2021/11/24 10:57:12;;;;;;;2.90;2.58;;;9.50;99.90;;;;;;4897211;29;20029;-82
2021/11/24 10:59:41;;;;;;;2.40;2.20;;;9.60;99.90;;;;;;4896315;29;20025;-79
2021/11/24 11:02:29;;;;;;;1.83;1.65;;;9.60;99.90;;;;;;4897818;29;20052;-81
2021/11/24 11:05:10;;;;;;;1.45;1.35;;;9.70;99.90;;;;;;4901215;29;20072;-82
2021/11/24 11:07:40;;;;;;;1.45;1.30;;;9.70;99.90;;;;;;4900005;29;20025;-83
2021/11/24 11:10:13;;;;;;;1.40;1.30;;;9.60;99.90;;;;;;4901890;29;20537;-85
2021/11/24 11:12:42;;;;;;;1.55;1.30;;;9.60;99.90;;;;;;4900858;29;20040;-75
2021/11/24 11:15:34;;;;;;;1.42;1.30;;;9.70;99.90;;;;;;4901717;29;20069;-82
2021/11/24 11:18:03;;;;;;;1.40;1.30;;;9.70;99.90;;;;;;4900882;29;20029;-84
2021/11/24 11:20:51;;;;;;;1.42;1.33;;;9.70;99.90;;;;;;4900963;29;20029;-83
2021/11/24 11:23:25;;;;;;;1.30;1.15;;;9.70;99.90;;;;;;4900097;29;20127;-84
2021/11/24 11:26:04;;;;;;;1.35;1.25;;;9.70;99.90;;;;;;4900733;29;20032;-83
2021/11/24 11:28:33;;;;;;;1.50;1.40;;;9.70;99.90;;;;;;4899718;29;20028;-83
2021/11/24 11:31:03;;;;;;;3.05;1.48;;;9.70;99.90;;;;;;4900070;29;20470;-82
2021/11/24 11:33:34;;;;;;;1.65;1.52;;;9.70;99.90;;;;;;4900126;29;20032;-82
2021/11/24 11:36:06;;;;;;;1.70;1.60;;;9.70;99.90;;;;;;4901462;29;20029;-83
2021/11/24 11:38:33;;;;;;;1.50;1.40;;;9.70;99.90;;;;;;4901040;29;20048;-78
2021/11/24 11:41:01;;;;;;;1.35;1.25;;;9.70;99.90;;;;;;4900458;29;20028;-82
2021/11/24 11:43:27;;;;;;;1.40;1.30;;;9.60;99.90;;;;;;4900785;29;20536;-81
2021/11/24 11:45:52;;;;;;;1.35;1.25;;;9.60;99.90;;;;;;4900483;29;20088;-73
2021/11/24 11:48:29;;;;;;;2.05;1.30;;;9.50;99.90;;;;;;4900915;29;20029;-79
2021/11/24 11:50:56;;;;;;;1.35;1.20;;;9.50;99.90;;;;;;4900902;29;20052;-81
2021/11/24 11:53:32;;;;;;;2.28;1.88;;;9.50;99.90;;;;;;4900253;29;20478;-82
2021/11/24 11:56:10;;;;;;;1.80;1.70;;;9.50;99.90;;;;;;4900962;29;20117;-82
2021/11/24 11:58:49;;;;;;;2.22;1.95;;;9.60;99.90;;;;;;4900564;29;20111;-81
2021/11/24 12:01:29;;;;;;;1.80;1.70;;;9.70;99.90;;;;;;4899847;29;20048;-79
2021/11/24 12:04:07;;;;;;;1.73;1.60;;;9.80;99.90;;;;;;4900096;29;20092;-77
2021/11/24 12:06:40;;;;;;;2.80;1.95;;;9.80;99.90;;;;;;4900416;29;20098;-83
2021/11/24 12:09:06;;;;;;;1.83;1.65;;;9.90;99.90;;;;;;4898676;29;20080;-82
2021/11/24 12:12:10;;;;;;;2.45;2.00;;;9.90;99.90;;;;;;4900193;29;20466;-82
2021/11/24 12:14:42;;;;;;;2.25;2.05;;;10.00;99.90;;;;;;4895905;29;20548;-82
2021/11/24 12:17:36;;;;;;;2.35;2.15;;;10.00;99.90;;;;;;4900399;29;20029;-77
2021/11/24 12:20:11;;;;;;;2.42;2.22;;;10.10;99.90;;;;;;4899311;29;20032;-82
2021/11/24 12:22:59;;;;;;;3.15;2.67;;;10.10;99.90;;;;;;4898002;29;20040;-78
2021/11/24 12:25:28;;;;;;;3.47;2.85;;;10.10;99.90;;;;;;4898646;29;20043;-70
2021/11/24 12:27:53;;;;;;;3.13;2.80;;;10.20;99.90;;;;;;4900199;29;20021;-80
2021/11/24 12:30:34;;;;;;;2.90;2.60;;;10.20;99.90;;;;;;4899607;29;20434;-80
2021/11/24 12:33:29;;;;;;;3.90;2.97;;;10.20;99.90;;;;;;4900136;29;20044;-82
2021/11/24 12:36:04;;;;;;;5.63;3.60;;;10.20;99.90;;;;;;4898121;29;20029;-81
2021/11/24 12:38:46;;;;;;;9.63;7.68;;;10.20;99.90;;;;;;4898721;29;20021;-80
2021/11/24 12:41:17;;;;;;;10.65;8.65;;;10.20;99.90;;;;;;4898853;29;20029;-83
2021/11/24 12:43:49;;;;;;;10.98;9.07;;;10.20;99.90;;;;;;4899189;29;20036;-84
2021/11/24 12:46:23;;;;;;;9.40;7.97;;;10.20;99.90;;;;;;4899877;29;20029;-76
2021/11/24 12:49:02;;;;;;;8.43;7.10;;;10.20;99.90;;;;;;4899880;29;20037;-86
2021/11/24 12:51:33;;;;;;;9.32;8.13;;;10.20;99.90;;;;;;4897543;29;20220;-85
2021/11/24 12:54:07;;;;;;;11.18;8.68;;;10.20;99.90;;;;;;4900177;29;20165;-79
2021/11/24 12:56:36;;;;;;;12.80;10.57;;;10.20;99.90;;;;;;4899026;29;20092;-77
2021/11/24 12:59:09;;;;;;;13.07;10.45;;;10.30;99.90;;;;;;4899955;29;20021;-84